createdAt,value
2018-10-05T00:02:03.429Z,11.80
2018-10-05T00:04:31.660Z,11.80
2018-10-05T00:07:00.108Z,11.90
2018-10-05T00:09:28.250Z,11.90
2018-10-05T00:11:56.492Z,11.90
2018-10-05T00:14:25.352Z,11.90
2018-10-05T00:16:53.683Z,12.00
2018-10-05T00:19:21.868Z,12.00
2018-10-05T00:21:50.051Z,12.00
2018-10-05T00:24:18.191Z,12.10
2018-10-05T00:26:47.077Z,12.20
2018-10-05T00:29:15.221Z,12.30
2018-10-05T00:31:43.405Z,12.30
2018-10-05T00:34:11.543Z,12.40
2018-10-05T00:36:39.705Z,12.40
2018-10-05T00:39:09.096Z,12.40
2018-10-05T00:41:37.243Z,12.40
2018-10-05T00:44:05.448Z,12.50
2018-10-05T00:46:33.619Z,12.50
2018-10-05T00:49:01.752Z,12.50
2018-10-05T00:51:29.945Z,12.60
2018-10-05T00:53:58.225Z,12.60
2018-10-05T00:56:27.152Z,12.70
2018-10-05T00:58:55.282Z,12.60
2018-10-05T01:01:24.195Z,12.70
2018-10-05T01:03:52.363Z,12.70
2018-10-05T01:06:20.551Z,12.70
2018-10-05T01:08:48.689Z,12.70
2018-10-05T01:11:16.873Z,12.70
2018-10-05T01:13:45.473Z,12.70
2018-10-05T01:16:13.609Z,12.70
2018-10-05T01:18:41.790Z,12.60
2018-10-05T01:21:09.976Z,12.60
2018-10-05T01:23:38.927Z,12.60
2018-10-05T01:26:07.109Z,12.60
2018-10-05T01:28:36.111Z,12.60
2018-10-05T01:31:04.265Z,12.60
2018-10-05T01:33:32.465Z,12.60
2018-10-05T01:36:00.677Z,12.60
2018-10-05T01:38:28.859Z,12.60
2018-10-05T01:40:57.039Z,12.60
2018-10-05T01:43:25.237Z,12.60
2018-10-05T01:45:53.369Z,12.60
2018-10-05T01:48:21.544Z,12.60
2018-10-05T01:50:51.360Z,12.60
2018-10-05T01:53:19.470Z,12.60
2018-10-05T01:55:47.697Z,12.60
2018-10-05T01:58:16.445Z,12.60
2018-10-05T02:00:44.591Z,12.60
2018-10-05T02:03:12.707Z,12.70
2018-10-05T02:05:40.857Z,12.70
2018-10-05T02:08:09.015Z,12.70
2018-10-05T02:10:37.153Z,12.70
2018-10-05T02:13:05.262Z,12.70
2018-10-05T02:15:33.473Z,12.70
2018-10-05T02:18:02.667Z,12.70
2018-10-05T02:20:30.851Z,12.70
2018-10-05T02:22:59.021Z,12.70
2018-10-05T02:25:27.151Z,12.70
2018-10-05T02:27:55.315Z,12.80
2018-10-05T02:30:23.480Z,12.80
2018-10-05T02:32:51.664Z,12.80
2018-10-05T02:35:19.827Z,12.80
2018-10-05T02:37:48.021Z,12.80
2018-10-05T02:40:16.308Z,12.80
2018-10-05T02:42:44.491Z,12.80
2018-10-05T02:45:12.731Z,12.80
2018-10-05T02:47:40.911Z,12.80
2018-10-05T02:50:09.161Z,12.80
2018-10-05T02:52:37.357Z,12.80
2018-10-05T02:55:05.573Z,12.80
2018-10-05T02:57:33.754Z,12.80
2018-10-05T03:00:01.920Z,12.80
2018-10-05T03:02:31.615Z,12.80
2018-10-05T03:04:59.770Z,12.80
2018-10-05T03:07:29.125Z,12.80
2018-10-05T03:09:58.041Z,12.80
2018-10-05T03:12:26.296Z,12.80
2018-10-05T03:14:54.424Z,12.80
2018-10-05T03:17:23.960Z,12.80
2018-10-05T03:19:52.180Z,12.80
2018-10-05T03:22:20.931Z,12.80
2018-10-05T03:24:49.079Z,12.80
2018-10-05T03:27:17.261Z,12.80
2018-10-05T03:29:45.404Z,12.80
2018-10-05T03:32:13.543Z,12.80
2018-10-05T03:34:41.721Z,12.80
2018-10-05T03:37:09.892Z,12.80
2018-10-05T03:39:38.025Z,12.80
2018-10-05T03:42:06.264Z,12.80
2018-10-05T03:44:34.417Z,12.80
2018-10-05T03:47:02.599Z,12.80
2018-10-05T03:49:33.492Z,12.80
2018-10-05T03:52:01.745Z,12.80
2018-10-05T03:54:30.277Z,12.90
2018-10-05T03:56:58.476Z,12.90
2018-10-05T03:59:26.670Z,12.90
2018-10-05T04:01:54.801Z,12.80
2018-10-05T04:04:23.045Z,12.80
2018-10-05T04:06:51.210Z,12.80
2018-10-05T04:09:19.390Z,12.80
2018-10-05T04:11:47.570Z,12.80
2018-10-05T04:14:15.746Z,12.80
2018-10-05T04:16:43.912Z,12.80
2018-10-05T04:19:12.100Z,12.80
2018-10-05T04:21:40.300Z,12.80
2018-10-05T04:24:09.552Z,12.80
2018-10-05T04:26:37.706Z,12.80
2018-10-05T04:29:05.872Z,12.90
2018-10-05T04:31:34.062Z,12.90
2018-10-05T04:34:02.246Z,12.90
2018-10-05T04:36:30.475Z,12.90
2018-10-05T04:38:58.725Z,12.90
2018-10-05T04:41:26.875Z,12.90
2018-10-05T04:43:55.067Z,12.90
2018-10-05T04:46:23.268Z,12.90
2018-10-05T04:48:51.481Z,12.90
2018-10-05T04:51:20.271Z,12.90
2018-10-05T04:53:48.455Z,12.90
2018-10-05T04:56:16.854Z,12.90
2018-10-05T04:58:45.191Z,12.90
2018-10-05T05:01:13.414Z,12.90
2018-10-05T05:03:41.535Z,12.90
2018-10-05T05:06:09.706Z,12.90
2018-10-05T05:08:37.928Z,12.90
2018-10-05T05:11:06.388Z,12.90
2018-10-05T05:13:34.568Z,12.90
2018-10-05T05:16:03.544Z,12.90
2018-10-05T05:18:31.679Z,12.90
2018-10-05T05:21:00.771Z,12.90
2018-10-05T05:23:29.044Z,12.90
2018-10-05T05:25:57.344Z,12.90
2018-10-05T05:28:25.548Z,12.90
2018-10-05T05:30:53.761Z,13.00
2018-10-05T05:33:22.065Z,13.00
2018-10-05T05:35:50.302Z,13.00
2018-10-05T05:38:18.456Z,13.00
2018-10-05T05:40:46.683Z,13.00
2018-10-05T05:43:14.827Z,13.00
2018-10-05T05:45:43.111Z,13.00
2018-10-05T05:48:11.272Z,13.00
2018-10-05T05:50:39.508Z,13.00
2018-10-05T05:53:07.699Z,13.00
2018-10-05T05:55:35.854Z,13.00
2018-10-05T05:58:04.050Z,13.00
2018-10-05T06:00:32.284Z,13.10
2018-10-05T06:03:00.522Z,13.10
2018-10-05T06:05:29.915Z,13.10
2018-10-05T06:07:58.194Z,13.10
2018-10-05T06:10:27.228Z,13.10
2018-10-05T06:12:55.623Z,13.10
2018-10-05T06:15:23.829Z,13.10
2018-10-05T06:17:52.032Z,13.10
2018-10-05T06:20:20.166Z,13.10
2018-10-05T06:22:48.382Z,13.10
2018-10-05T06:25:16.553Z,13.10
2018-10-05T06:27:44.721Z,13.10
2018-10-05T06:30:12.926Z,13.10
2018-10-05T06:32:41.093Z,13.10
2018-10-05T06:35:09.276Z,13.10
2018-10-05T06:37:37.419Z,13.20
2018-10-05T06:40:05.660Z,13.40
2018-10-05T06:42:34.006Z,13.50
2018-10-05T06:45:02.163Z,13.60
2018-10-05T06:47:30.282Z,13.80
2018-10-05T06:49:58.460Z,13.90
2018-10-05T06:52:26.669Z,13.90
2018-10-05T06:54:54.846Z,14.00
2018-10-05T06:57:23.005Z,14.10
2018-10-05T06:59:51.170Z,14.10
2018-10-05T07:02:19.305Z,14.20
2018-10-05T07:04:47.448Z,14.20
2018-10-05T07:07:15.725Z,14.20
2018-10-05T07:09:43.862Z,14.20
2018-10-05T07:12:11.990Z,14.20
2018-10-05T07:14:40.115Z,14.30
2018-10-05T07:17:08.307Z,14.30
2018-10-05T07:19:36.425Z,14.30
2018-10-05T07:22:04.666Z,14.30
2018-10-05T07:24:32.888Z,14.30
2018-10-05T07:27:01.041Z,14.30
2018-10-05T07:29:29.180Z,14.40
2018-10-05T07:31:57.325Z,14.40
2018-10-05T07:34:26.004Z,14.50
2018-10-05T07:36:54.427Z,14.50
2018-10-05T07:39:24.148Z,14.50
2018-10-05T07:41:52.344Z,14.60
2018-10-05T07:44:21.401Z,14.60
2018-10-05T07:46:49.608Z,14.70
2018-10-05T07:49:17.836Z,14.80
2018-10-05T07:51:47.052Z,14.80
2018-10-05T07:54:15.755Z,14.90
2018-10-05T07:56:44.092Z,14.90
2018-10-05T07:59:12.568Z,15.10
2018-10-05T08:01:40.766Z,15.10
2018-10-05T08:04:08.957Z,15.20
2018-10-05T08:06:37.114Z,15.20
2018-10-05T08:11:43.268Z,15.30
2018-10-05T08:14:11.930Z,15.50
2018-10-05T08:16:40.072Z,15.60
2018-10-05T08:19:08.200Z,15.70
2018-10-05T08:21:36.333Z,15.70
2018-10-05T08:24:04.558Z,15.80
2018-10-05T08:26:32.770Z,15.80
2018-10-05T08:29:00.941Z,15.90
2018-10-05T08:31:29.099Z,16.00
2018-10-05T08:33:57.326Z,16.10
2018-10-05T08:36:25.510Z,16.10
2018-10-05T08:38:53.723Z,16.20
2018-10-05T08:41:21.866Z,16.30
2018-10-05T08:43:50.132Z,16.40
2018-10-05T08:46:18.302Z,16.40
2018-10-05T08:48:46.442Z,16.50
2018-10-05T08:51:14.548Z,16.60
2018-10-05T08:53:42.730Z,16.60
2018-10-05T08:56:10.874Z,16.70
2018-10-05T08:58:39.065Z,16.70
2018-10-05T09:01:07.251Z,16.70
2018-10-05T09:03:35.448Z,16.80
2018-10-05T09:06:03.578Z,17.00
2018-10-05T09:08:32.898Z,17.00
2018-10-05T09:11:01.060Z,17.20
2018-10-05T09:13:29.261Z,17.20
2018-10-05T09:15:57.476Z,17.20
2018-10-05T09:18:25.690Z,17.30
2018-10-05T09:20:53.784Z,17.40
2018-10-05T09:23:21.956Z,17.40
2018-10-05T09:25:50.093Z,17.50
2018-10-05T09:28:18.244Z,17.50
2018-10-05T09:30:46.448Z,17.60
2018-10-05T09:33:15.950Z,17.60
2018-10-05T09:35:44.312Z,17.70
2018-10-05T09:38:12.581Z,17.80
2018-10-05T09:40:40.813Z,17.80
2018-10-05T09:43:09.096Z,17.80
2018-10-05T09:45:37.431Z,17.90
2018-10-05T09:48:05.674Z,17.90
2018-10-05T09:50:34.036Z,18.00
2018-10-05T09:53:04.105Z,18.00
2018-10-05T09:55:32.324Z,18.10
2018-10-05T09:58:00.765Z,18.20
2018-10-05T10:00:34.498Z,18.20
2018-10-05T10:03:08.307Z,18.30
2018-10-05T10:05:36.479Z,18.30
2018-10-05T10:08:04.862Z,18.30
2018-10-05T10:10:32.991Z,18.40
2018-10-05T10:13:01.141Z,18.40
2018-10-05T10:15:30.404Z,18.50
2018-10-05T10:17:58.573Z,18.50
2018-10-05T10:20:26.762Z,18.60
2018-10-05T10:22:55.701Z,18.60
2018-10-05T10:25:23.857Z,18.60
2018-10-05T10:27:52.067Z,18.60
2018-10-05T10:30:20.268Z,18.50
2018-10-05T10:32:49.021Z,18.50
2018-10-05T10:35:17.232Z,18.60
2018-10-05T10:37:45.416Z,18.70
2018-10-05T10:40:13.578Z,18.70
2018-10-05T10:42:41.762Z,18.80
2018-10-05T10:45:10.342Z,18.70
2018-10-05T10:47:38.546Z,18.80
2018-10-05T10:52:41.375Z,18.90
2018-10-05T10:55:09.619Z,18.90
2018-10-05T10:57:37.679Z,18.90
2018-10-05T11:00:05.885Z,18.90
2018-10-05T11:02:34.008Z,18.80
2018-10-05T11:05:02.233Z,18.80
2018-10-05T11:07:30.358Z,18.80
2018-10-05T11:09:58.477Z,18.90
2018-10-05T11:12:26.616Z,19.00
2018-10-05T11:14:54.946Z,19.00
2018-10-05T11:17:23.071Z,19.00
2018-10-05T11:19:51.277Z,19.00
2018-10-05T11:22:19.457Z,19.10
2018-10-05T11:24:47.679Z,19.10
2018-10-05T11:27:15.861Z,19.10
2018-10-05T11:29:44.146Z,19.10
2018-10-05T11:32:12.239Z,19.00
2018-10-05T11:34:40.441Z,19.00
2018-10-05T11:37:08.693Z,19.00
2018-10-05T11:39:36.821Z,19.10
2018-10-05T11:42:05.100Z,19.10
2018-10-05T11:44:33.219Z,19.10
2018-10-05T11:47:03.088Z,19.20
2018-10-05T11:49:31.268Z,19.20
2018-10-05T11:51:59.553Z,19.20
2018-10-05T11:54:27.705Z,19.20
2018-10-05T11:56:55.866Z,19.20
2018-10-05T11:59:25.278Z,19.20
2018-10-05T12:01:53.469Z,19.20
2018-10-05T12:04:22.250Z,19.20
2018-10-05T12:06:50.433Z,19.10
2018-10-05T12:09:18.604Z,19.20
2018-10-05T12:11:46.780Z,19.20
2018-10-05T12:14:14.978Z,19.20
2018-10-05T12:16:43.135Z,19.20
2018-10-05T12:19:11.298Z,19.20
2018-10-05T12:21:39.442Z,19.20
2018-10-05T12:24:07.766Z,19.20
2018-10-05T12:26:35.950Z,19.10
2018-10-05T12:29:05.261Z,19.20
2018-10-05T12:31:33.455Z,19.30
2018-10-05T12:34:01.770Z,19.30
2018-10-05T12:36:29.987Z,19.40
2018-10-05T12:38:58.119Z,19.40
2018-10-05T12:41:26.344Z,19.40
2018-10-05T12:43:54.567Z,19.40
2018-10-05T12:46:22.854Z,19.40
2018-10-05T12:48:51.232Z,19.40
2018-10-05T12:51:19.355Z,19.30
2018-10-05T12:53:47.527Z,19.30
2018-10-05T12:56:15.931Z,19.20
2018-10-05T12:58:44.161Z,19.20
2018-10-05T13:01:12.378Z,19.20
2018-10-05T13:03:40.517Z,19.20
2018-10-05T13:06:08.690Z,19.20
2018-10-05T13:08:36.824Z,19.30
2018-10-05T13:11:04.973Z,19.30
2018-10-05T13:13:33.111Z,19.30
2018-10-05T13:16:01.320Z,19.30
2018-10-05T13:18:29.871Z,19.30
2018-10-05T13:20:58.177Z,19.50
2018-10-05T13:23:26.305Z,19.50
2018-10-05T13:25:54.473Z,19.60
2018-10-05T13:28:22.655Z,19.50
2018-10-05T13:30:51.351Z,19.50
2018-10-05T13:33:19.459Z,19.40
2018-10-05T13:35:47.600Z,19.40
2018-10-05T13:38:15.840Z,19.40
2018-10-05T13:40:43.992Z,19.40
2018-10-05T13:43:12.125Z,19.30
2018-10-05T13:45:40.289Z,19.30
2018-10-05T13:48:08.433Z,19.20
2018-10-05T13:50:36.670Z,19.20
2018-10-05T13:53:04.822Z,19.20
2018-10-05T13:55:33.083Z,19.20
2018-10-05T13:58:01.219Z,19.10
2018-10-05T14:00:29.445Z,19.10
2018-10-05T14:02:58.667Z,19.10
2018-10-05T14:05:26.977Z,19.10
2018-10-05T14:07:55.211Z,19.10
2018-10-05T14:10:23.489Z,19.00
2018-10-05T14:12:51.663Z,19.00
2018-10-05T14:15:19.901Z,19.00
2018-10-05T14:17:48.330Z,19.10
2018-10-05T14:20:16.456Z,19.00
2018-10-05T14:22:44.638Z,18.90
2018-10-05T14:25:12.887Z,18.80
2018-10-05T14:27:41.060Z,18.80
2018-10-05T14:30:09.265Z,18.70
2018-10-05T14:32:37.500Z,18.70
2018-10-05T14:35:05.679Z,18.70
2018-10-05T14:37:33.869Z,18.70
2018-10-05T14:40:02.053Z,18.80
2018-10-05T14:42:30.260Z,18.80
2018-10-05T14:44:58.468Z,18.80
2018-10-05T14:47:26.591Z,18.70
2018-10-05T14:49:54.749Z,18.70
2018-10-05T14:52:24.560Z,18.60
2018-10-05T14:54:53.633Z,18.60
2018-10-05T14:57:23.228Z,18.60
2018-10-05T14:59:53.002Z,18.60
2018-10-05T15:02:21.149Z,18.50
2018-10-05T15:04:49.348Z,18.50
2018-10-05T15:07:17.542Z,18.40
2018-10-05T15:09:46.529Z,18.40
2018-10-05T15:12:14.649Z,18.40
2018-10-05T15:14:42.815Z,18.40
2018-10-05T15:17:11.015Z,18.30
2018-10-05T15:19:39.235Z,18.30
2018-10-05T15:22:07.625Z,18.30
2018-10-05T15:24:35.841Z,18.30
2018-10-05T15:27:04.047Z,18.30
2018-10-05T15:29:32.258Z,18.20
2018-10-05T15:32:00.435Z,18.20
2018-10-05T15:34:29.180Z,18.20
2018-10-05T15:36:57.333Z,18.10
2018-10-05T15:39:25.673Z,18.10
2018-10-05T15:41:53.900Z,18.00
2018-10-05T15:44:22.046Z,17.90
2018-10-05T15:46:54.110Z,17.80
2018-10-05T15:49:22.285Z,17.80
2018-10-05T15:51:50.507Z,17.80
2018-10-05T15:54:18.800Z,17.70
2018-10-05T15:56:47.011Z,17.60
2018-10-05T15:59:15.727Z,17.50
2018-10-05T16:01:43.959Z,17.50
2018-10-05T16:04:12.162Z,17.40
2018-10-05T16:06:40.385Z,17.40
2018-10-05T16:09:09.197Z,17.30
2018-10-05T16:11:37.597Z,17.30
2018-10-05T16:14:05.912Z,17.30
2018-10-05T16:16:34.225Z,17.20
2018-10-05T16:19:03.307Z,17.20
2018-10-05T16:21:31.788Z,17.20
2018-10-05T16:23:59.955Z,17.10
2018-10-05T16:26:28.145Z,17.00
2018-10-05T16:28:56.425Z,16.90
2018-10-05T16:31:24.609Z,16.80
2018-10-05T16:33:53.431Z,16.80
2018-10-05T16:36:21.613Z,16.70
2018-10-05T16:38:49.799Z,16.70
2018-10-05T16:41:17.974Z,16.60
2018-10-05T16:43:46.206Z,16.50
2018-10-05T16:46:14.389Z,16.40
2018-10-05T16:48:42.560Z,16.30
2018-10-05T16:51:10.842Z,16.30
2018-10-05T16:53:39.062Z,16.20
2018-10-05T16:56:07.257Z,16.10
2018-10-05T16:58:35.489Z,16.10
2018-10-05T17:01:03.637Z,16.00
2018-10-05T17:03:31.998Z,16.00
2018-10-05T17:06:00.172Z,15.90
2018-10-05T17:08:30.043Z,15.80
2018-10-05T17:10:58.374Z,15.70
2018-10-05T17:13:26.513Z,15.70
2018-10-05T17:15:54.888Z,15.60
2018-10-05T17:18:23.152Z,15.50
2018-10-05T17:20:51.423Z,15.50
2018-10-05T17:23:19.601Z,15.40
2018-10-05T17:25:47.959Z,15.30
2018-10-05T17:28:16.236Z,15.20
2018-10-05T17:30:44.451Z,15.20
2018-10-05T17:33:12.609Z,15.10
2018-10-05T17:35:40.762Z,15.10
2018-10-05T17:38:08.938Z,15.00
2018-10-05T17:40:37.153Z,15.00
2018-10-05T17:43:05.902Z,14.90
2018-10-05T17:45:34.154Z,14.90
2018-10-05T17:48:02.410Z,14.80
2018-10-05T17:50:30.709Z,14.80
2018-10-05T17:52:59.006Z,14.70
2018-10-05T17:55:27.689Z,14.70
2018-10-05T17:57:56.098Z,14.70
2018-10-05T18:00:24.310Z,14.60
2018-10-05T18:02:52.735Z,14.60
2018-10-05T18:05:20.927Z,14.50
2018-10-05T18:07:49.098Z,14.50
2018-10-05T18:10:17.284Z,14.50
2018-10-05T18:12:45.477Z,14.40
2018-10-05T18:15:13.637Z,14.40
2018-10-05T18:17:41.844Z,14.40
2018-10-05T18:20:10.627Z,14.40
2018-10-05T18:22:38.842Z,14.40
2018-10-05T18:25:08.037Z,14.30
2018-10-05T18:27:36.240Z,14.30
2018-10-05T18:30:04.546Z,14.30
2018-10-05T18:32:33.836Z,14.30
2018-10-05T18:35:01.980Z,14.30
2018-10-05T18:37:30.162Z,14.20
2018-10-05T18:39:58.562Z,14.20
2018-10-05T18:42:26.809Z,14.10
2018-10-05T18:44:55.057Z,14.10
2018-10-05T18:47:23.263Z,14.10
2018-10-05T18:49:51.495Z,14.00
2018-10-05T18:52:19.748Z,14.00
2018-10-05T18:54:48.007Z,13.90
2018-10-05T18:57:19.957Z,13.90
2018-10-05T18:59:48.234Z,13.90
2018-10-05T19:02:17.022Z,13.80
2018-10-05T19:04:45.737Z,13.80
2018-10-05T19:07:14.590Z,13.80
2018-10-05T19:09:42.786Z,13.70
2018-10-05T19:12:11.163Z,13.70
2018-10-05T19:14:39.308Z,13.70
2018-10-05T19:17:07.480Z,13.60
2018-10-05T19:19:35.756Z,13.60
2018-10-05T19:22:03.986Z,13.50
2018-10-05T19:24:32.169Z,13.50
2018-10-05T19:27:00.469Z,13.50
2018-10-05T19:29:28.824Z,13.40
2018-10-05T19:31:57.085Z,13.40
2018-10-05T19:34:25.356Z,13.40
2018-10-05T19:36:53.564Z,13.40
2018-10-05T19:39:21.907Z,13.40
2018-10-05T19:41:50.091Z,13.30
2018-10-05T19:44:18.335Z,13.30
2018-10-05T19:46:46.540Z,13.20
2018-10-05T19:49:14.830Z,13.20
2018-10-05T19:51:43.002Z,13.20
2018-10-05T19:54:11.370Z,13.10
2018-10-05T19:56:39.638Z,13.10
2018-10-05T19:59:07.988Z,13.10
2018-10-05T20:01:36.247Z,13.00
2018-10-05T20:04:04.472Z,13.00
2018-10-05T20:06:32.664Z,13.00
2018-10-05T20:09:00.877Z,13.00
2018-10-05T20:11:29.105Z,12.90
2018-10-05T20:13:57.318Z,12.90
2018-10-05T20:16:26.109Z,12.90
2018-10-05T20:18:54.327Z,12.80
2018-10-05T20:21:23.810Z,12.80
2018-10-05T20:23:51.990Z,12.80
2018-10-05T20:26:20.236Z,12.80
2018-10-05T20:28:48.817Z,12.70
2018-10-05T20:31:16.964Z,12.70
2018-10-05T20:33:45.135Z,12.60
2018-10-05T20:36:13.446Z,12.60
2018-10-05T20:38:41.594Z,12.60
2018-10-05T20:41:09.768Z,12.50
2018-10-05T20:43:37.972Z,12.50
2018-10-05T20:46:06.209Z,12.50
2018-10-05T20:48:34.498Z,12.50
2018-10-05T20:51:02.728Z,12.40
2018-10-05T20:53:30.966Z,12.40
2018-10-05T20:55:59.315Z,12.40
2018-10-05T20:58:28.041Z,12.40
2018-10-05T21:00:56.276Z,12.40
2018-10-05T21:03:24.564Z,12.30
2018-10-05T21:05:52.925Z,12.30
2018-10-05T21:08:21.158Z,12.30
2018-10-05T21:10:49.376Z,12.30
2018-10-05T21:13:17.566Z,12.20
2018-10-05T21:15:45.837Z,12.20
2018-10-05T21:18:14.355Z,12.20
2018-10-05T21:20:42.610Z,12.20
2018-10-05T21:23:10.946Z,12.10
2018-10-05T21:25:39.096Z,12.10
2018-10-05T21:28:07.375Z,12.10
2018-10-05T21:30:35.610Z,12.00
2018-10-05T21:33:03.856Z,12.10
2018-10-05T21:35:31.891Z,12.10
2018-10-05T21:38:00.060Z,12.10
2018-10-05T21:40:28.245Z,12.10
2018-10-05T21:42:57.098Z,12.10
2018-10-05T21:45:25.248Z,12.10
2018-10-05T21:47:53.570Z,12.10
2018-10-05T21:50:21.946Z,12.00
2018-10-05T21:52:50.443Z,12.00
2018-10-05T21:55:19.833Z,11.90
2018-10-05T21:57:48.086Z,11.90
2018-10-05T22:00:16.400Z,11.80
2018-10-05T22:02:44.683Z,11.80
2018-10-05T22:05:13.577Z,11.70
2018-10-05T22:07:41.958Z,11.70
2018-10-05T22:10:10.172Z,11.70
2018-10-05T22:12:38.568Z,11.60
2018-10-05T22:15:06.934Z,11.60
2018-10-05T22:17:35.178Z,11.60
2018-10-05T22:20:03.491Z,11.50
2018-10-05T22:22:31.614Z,11.50
2018-10-05T22:24:59.750Z,11.50
2018-10-05T22:27:27.966Z,11.50
2018-10-05T22:29:56.184Z,11.50
2018-10-05T22:32:24.372Z,11.50
2018-10-05T22:34:52.550Z,11.40
2018-10-05T22:37:20.954Z,11.40
2018-10-05T22:39:49.779Z,11.40
2018-10-05T22:42:17.973Z,11.30
2018-10-05T22:44:46.740Z,11.30
2018-10-05T22:47:14.991Z,11.30
2018-10-05T22:49:43.254Z,11.30
2018-10-05T22:52:11.455Z,11.30
2018-10-05T22:54:40.147Z,11.20
2018-10-05T22:57:09.595Z,11.20
2018-10-05T22:59:37.787Z,11.20
2018-10-05T23:02:07.464Z,11.10
2018-10-05T23:04:35.711Z,11.10
2018-10-05T23:07:03.884Z,11.10
2018-10-05T23:09:32.035Z,11.00
2018-10-05T23:12:00.194Z,11.00
2018-10-05T23:14:28.418Z,11.00
2018-10-05T23:16:56.685Z,10.90
2018-10-05T23:19:24.826Z,10.90
2018-10-05T23:21:53.038Z,10.90
2018-10-05T23:24:21.887Z,10.90
2018-10-05T23:26:50.024Z,10.80
2018-10-05T23:29:18.191Z,10.80
2018-10-05T23:31:46.370Z,10.80
2018-10-05T23:34:14.598Z,10.70
2018-10-05T23:36:42.837Z,10.70
2018-10-05T23:39:11.713Z,10.70
2018-10-05T23:41:39.885Z,10.70
2018-10-05T23:44:08.298Z,10.60
2018-10-05T23:49:11.127Z,10.60
2018-10-05T23:51:39.315Z,10.60
2018-10-05T23:54:07.495Z,10.60
2018-10-05T23:56:35.739Z,10.60
2018-10-05T23:59:04.805Z,10.60
